Time;durP1;ratioP1;P1;durP2;ratioP2;P2;SDS_P1;SDS_P2;PMS_P1;PMS_P2;Temp;Humidity;BMP_temperature;BMP_pressure;BME280_temperature;BME280_humidity;BME280_pressure;Samples;Min_cycle;Max_cycle;Signal;HPM_P1;HPM_P2
2021/04/19 00:01:29;;;;;;;6.55;3.45;;;23.30;62.70;;;;;;4996635;28;20083;-70
2021/04/19 00:03:57;;;;;;;7.18;3.70;;;23.60;62.10;;;;;;4993303;28;20971;-71
2021/04/19 00:06:25;;;;;;;7.10;3.63;;;24.20;61.70;;;;;;4992701;28;20037;-72
2021/04/19 00:08:52;;;;;;;5.20;3.45;;;24.70;59.70;;;;;;4999494;28;20131;-69
2021/04/19 00:11:20;;;;;;;8.43;3.28;;;25.00;59.70;;;;;;4995966;28;20470;-68
2021/04/19 00:13:48;;;;;;;6.38;3.33;;;25.00;57.10;;;;;;4996483;28;20777;-71
2021/04/19 00:16:15;;;;;;;10.93;3.35;;;25.00;57.70;;;;;;4998822;28;20034;-69
2021/04/19 00:18:43;;;;;;;5.97;3.17;;;25.50;58.30;;;;;;4999575;28;20145;-70
2021/04/19 00:21:10;;;;;;;7.38;2.90;;;25.60;56.00;;;;;;4999158;28;20065;-69
2021/04/19 00:23:38;;;;;;;6.57;2.90;;;25.80;55.30;;;;;;4996710;28;20088;-69
2021/04/19 00:26:05;;;;;;;10.82;3.90;;;25.60;56.80;;;;;;5001939;28;20045;-72
2021/04/19 00:28:32;;;;;;;5.70;3.03;;;25.30;54.60;;;;;;4991158;28;20337;-72
2021/04/19 00:31:00;;;;;;;8.85;3.50;;;25.10;55.70;;;;;;4992889;28;20052;-72
2021/04/19 00:33:27;;;;;;;6.43;3.72;;;24.80;54.00;;;;;;5001783;28;20053;-74
2021/04/19 00:35:55;;;;;;;4.68;2.97;;;24.80;55.20;;;;;;5002191;28;20022;-72
2021/04/19 00:38:22;;;;;;;8.57;3.13;;;25.40;55.80;;;;;;5002809;28;20210;-71
2021/04/19 00:40:53;;;;;;;4.95;2.90;;;26.00;51.90;;;;;;5007408;28;20103;-70
2021/04/19 00:43:22;;;;;;;5.15;2.95;;;25.60;54.00;;;;;;4998510;28;20095;-71
2021/04/19 00:46:01;;;;;;;4.45;2.80;;;26.50;51.10;;;;;;5002699;28;20046;-71
2021/04/19 00:48:31;;;;;;;4.95;2.40;;;26.80;50.40;;;;;;5001832;28;20025;-71
2021/04/19 00:50:58;;;;;;;2.85;2.25;;;26.40;50.50;;;;;;5002425;28;20026;-71
2021/04/19 00:53:27;;;;;;;6.72;3.05;;;27.10;49.90;;;;;;5001968;28;20054;-69
2021/04/19 00:55:55;;;;;;;5.30;2.88;;;26.50;49.30;;;;;;5002614;28;20034;-72
2021/04/19 00:58:27;;;;;;;5.22;2.65;;;26.80;49.00;;;;;;5002553;28;20032;-71
2021/04/19 01:00:55;;;;;;;8.48;3.58;;;27.30;47.30;;;;;;5003767;28;20117;-70
2021/04/19 01:03:23;;;;;;;5.82;3.28;;;27.50;44.10;;;;;;5000261;28;20037;-71
2021/04/19 01:05:51;;;;;;;5.75;3.67;;;27.10;46.00;;;;;;4998644;28;20461;-71
2021/04/19 01:08:18;;;;;;;3.55;2.63;;;27.30;46.30;;;;;;5002148;28;20037;-72
2021/04/19 01:10:46;;;;;;;5.63;3.30;;;27.40;46.80;;;;;;5003481;28;20022;-70
2021/04/19 01:13:14;;;;;;;5.65;3.85;;;27.30;43.30;;;;;;5002930;28;20022;-70
2021/04/19 01:15:42;;;;;;;6.35;4.15;;;27.20;46.40;;;;;;5001235;28;20054;-71
2021/04/19 01:18:09;;;;;;;4.35;2.92;;;27.60;43.10;;;;;;5001823;28;20392;-72
2021/04/19 01:20:39;;;;;;;7.10;2.92;;;28.10;47.70;;;;;;5004432;28;20026;-71
2021/04/19 01:23:06;;;;;;;6.15;3.22;;;28.50;42.90;;;;;;5002594;28;20081;-70
2021/04/19 01:25:34;;;;;;;7.80;3.75;;;28.80;41.60;;;;;;5005525;28;20038;-70
2021/04/19 01:28:03;;;;;;;7.68;3.20;;;28.30;37.80;;;;;;5004338;28;20081;-71
2021/04/19 01:30:40;;;;;;;9.45;3.65;;;27.10;43.40;;;;;;4994532;28;20056;-73
2021/04/19 01:33:08;;;;;;;5.90;2.95;;;27.20;44.90;;;;;;5003021;28;20041;-71
2021/04/19 01:35:36;;;;;;;8.38;4.00;;;27.60;45.50;;;;;;4996062;28;20424;-72
2021/04/19 01:38:09;;;;;;;7.13;3.53;;;27.80;42.70;;;;;;5001637;28;20030;-72
2021/04/19 01:40:37;;;;;;;5.10;3.60;;;27.60;39.70;;;;;;5004000;28;20034;-71
2021/04/19 01:43:05;;;;;;;5.10;2.95;;;27.70;39.70;;;;;;5002167;28;20124;-71
2021/04/19 01:45:33;;;;;;;9.63;3.88;;;27.80;39.60;;;;;;4999959;28;20053;-71
2021/04/19 01:48:02;;;;;;;6.32;3.75;;;28.50;37.90;;;;;;5004694;28;20444;-71
2021/04/19 01:50:31;;;;;;;7.45;2.90;;;28.30;39.40;;;;;;5001795;28;20030;-75
2021/04/19 01:53:00;;;;;;;4.35;2.90;;;28.60;42.40;;;;;;5005187;28;20594;-71
2021/04/19 01:55:30;;;;;;;5.88;3.25;;;28.20;39.70;;;;;;5021539;28;20121;-69
2021/04/19 01:58:07;;;;;;;10.50;3.10;;;28.40;40.10;;;;;;5003633;28;20491;-70
2021/04/19 02:00:37;;;;;;;10.88;3.22;;;28.40;39.00;;;;;;5005436;28;20416;-70
2021/04/19 02:03:12;;;;;;;8.32;3.83;;;28.80;38.90;;;;;;5005762;28;20033;-69
2021/04/19 02:05:40;;;;;;;5.65;2.95;;;28.50;37.30;;;;;;5000578;28;20121;-73
2021/04/19 02:08:30;;;;;;;7.68;3.25;;;28.30;38.20;;;;;;5003182;28;20034;-70
2021/04/19 02:11:36;;;;;;;5.68;3.05;;;28.60;40.30;;;;;;5003322;28;20042;-72
2021/04/19 02:14:30;;;;;;;7.70;3.45;;;28.70;35.90;;;;;;5005201;28;20038;-72
2021/04/19 02:17:16;;;;;;;6.78;2.80;;;28.80;35.40;;;;;;4998073;28;20220;-72
2021/04/19 02:19:59;;;;;;;6.07;3.10;;;28.80;36.40;;;;;;5004228;28;20400;-74
2021/04/19 02:22:38;;;;;;;4.75;2.80;;;29.00;36.10;;;;;;5002053;28;20453;-73
2021/04/19 02:25:29;;;;;;;4.63;2.92;;;29.50;36.00;;;;;;5002170;28;20475;-72
2021/04/19 02:28:06;;;;;;;5.18;3.25;;;28.90;40.00;;;;;;5001636;28;20037;-71
2021/04/19 02:30:39;;;;;;;7.95;3.88;;;29.60;36.80;;;;;;5005249;28;20055;-72
2021/04/19 02:33:13;;;;;;;7.47;2.42;;;29.40;34.60;;;;;;5001463;28;20309;-69
2021/04/19 02:35:43;;;;;;;7.40;3.40;;;28.90;34.50;;;;;;5002464;28;20550;-71
2021/04/19 02:38:18;;;;;;;4.22;2.80;;;29.00;38.70;;;;;;5000467;28;20110;-74
2021/04/19 02:40:46;;;;;;;7.40;3.30;;;29.20;37.50;;;;;;5006973;28;20054;-76
2021/04/19 02:43:15;;;;;;;10.38;3.35;;;29.70;38.90;;;;;;5007645;28;20026;-74
2021/04/19 02:45:44;;;;;;;4.65;2.90;;;30.00;34.40;;;;;;5005355;28;20029;-74
2021/04/19 02:48:14;;;;;;;7.20;3.00;;;29.60;36.70;;;;;;5004904;28;20084;-73
2021/04/19 02:50:41;;;;;;;7.20;3.03;;;29.40;36.20;;;;;;5003129;28;20034;-71
2021/04/19 02:53:09;;;;;;;4.85;3.08;;;29.00;36.00;;;;;;5005359;28;20499;-73
2021/04/19 02:55:37;;;;;;;7.22;3.30;;;29.10;34.30;;;;;;5001911;28;20125;-75
2021/04/19 02:58:08;;;;;;;6.82;3.42;;;29.00;37.90;;;;;;5002190;28;20033;-72
2021/04/19 03:00:57;;;;;;;6.47;3.05;;;28.80;36.50;;;;;;5002274;28;20113;-73
2021/04/19 03:03:29;;;;;;;5.35;2.78;;;28.70;38.00;;;;;;5000699;28;20033;-71
2021/04/19 03:05:59;;;;;;;4.07;2.67;;;28.90;36.70;;;;;;5001904;28;20111;-73
2021/04/19 03:08:31;;;;;;;5.45;2.83;;;29.10;35.70;;;;;;5001378;28;20481;-74
2021/04/19 03:11:33;;;;;;;6.38;3.08;;;29.00;38.80;;;;;;5000948;28;20061;-75
2021/04/19 03:14:03;;;;;;;6.95;3.10;;;29.50;34.80;;;;;;4997882;28;20038;-73
2021/04/19 03:16:31;;;;;;;4.10;2.50;;;29.60;33.50;;;;;;5000295;28;20026;-75
2021/04/19 03:19:03;;;;;;;6.38;2.63;;;29.90;33.80;;;;;;5000863;28;20092;-74
2021/04/19 03:21:34;;;;;;;5.78;2.60;;;29.50;35.70;;;;;;5002584;28;20029;-73
2021/04/19 03:24:04;;;;;;;5.15;2.63;;;29.10;33.80;;;;;;5002492;28;20022;-74
2021/04/19 03:26:33;;;;;;;2.67;2.20;;;28.60;35.40;;;;;;5000877;28;20034;-72
2021/04/19 03:29:03;;;;;;;4.13;2.72;;;28.80;36.10;;;;;;5003994;28;20065;-73
2021/04/19 03:31:44;;;;;;;5.07;2.45;;;29.30;35.80;;;;;;5002862;28;20034;-71
2021/04/19 03:34:38;;;;;;;5.82;2.63;;;29.50;37.60;;;;;;5001474;28;20049;-73
2021/04/19 03:37:27;;;;;;;4.50;2.22;;;29.40;34.50;;;;;;4998573;28;20034;-73
2021/04/19 03:40:27;;;;;;;4.00;2.55;;;29.10;37.00;;;;;;5004293;28;20030;-73
2021/04/19 03:43:03;;;;;;;7.30;2.20;;;28.70;36.20;;;;;;5002417;28;20132;-75
2021/04/19 03:45:34;;;;;;;3.55;2.45;;;27.60;37.60;;;;;;5001109;28;20096;-74
2021/04/19 03:48:08;;;;;;;4.78;2.40;;;27.20;37.50;;;;;;5002178;28;20038;-72
2021/04/19 03:50:46;;;;;;;6.90;2.90;;;27.70;40.50;;;;;;5002647;28;20033;-71
2021/04/19 03:53:16;;;;;;;4.10;2.55;;;27.90;39.50;;;;;;4996066;28;20498;-72
2021/04/19 03:55:45;;;;;;;4.28;2.72;;;27.80;38.40;;;;;;5006953;28;20033;-69
2021/04/19 03:58:14;;;;;;;4.60;2.45;;;27.50;39.20;;;;;;4997885;28;20018;-74
2021/04/19 04:00:48;;;;;;;4.65;2.58;;;27.50;39.30;;;;;;4998569;28;20041;-71
2021/04/19 04:03:18;;;;;;;6.32;2.13;;;27.60;39.80;;;;;;5012678;28;20129;-73
2021/04/19 04:05:47;;;;;;;6.47;2.95;;;27.80;39.20;;;;;;5001135;28;20045;-72
2021/04/19 04:08:17;;;;;;;6.50;2.55;;;27.30;38.00;;;;;;5003466;28;20110;-70
2021/04/19 04:10:46;;;;;;;6.50;3.08;;;27.10;39.60;;;;;;5003378;28;20033;-74
2021/04/19 04:13:14;;;;;;;7.97;2.60;;;27.10;38.70;;;;;;5008860;28;20559;-73
2021/04/19 04:15:52;;;;;;;4.90;2.47;;;27.20;39.20;;;;;;5006604;28;20102;-78
2021/04/19 04:18:20;;;;;;;7.88;3.22;;;27.00;38.80;;;;;;5004743;28;20537;-72
2021/04/19 04:20:48;;;;;;;5.90;3.30;;;27.00;38.90;;;;;;5006797;28;20041;-74
2021/04/19 04:23:19;;;;;;;5.65;2.78;;;27.10;38.60;;;;;;5003711;28;20030;-73
2021/04/19 04:25:47;;;;;;;5.75;2.80;;;27.10;38.00;;;;;;5003001;28;20469;-75
2021/04/19 04:28:15;;;;;;;6.05;2.78;;;26.90;39.10;;;;;;5003877;28;20021;-72
2021/04/19 04:30:43;;;;;;;6.25;2.50;;;27.00;38.90;;;;;;5002819;28;20025;-74
2021/04/19 04:33:10;;;;;;;5.32;2.92;;;26.70;38.80;;;;;;5004225;28;20028;-77
2021/04/19 04:35:39;;;;;;;4.03;2.40;;;26.70;40.00;;;;;;5002631;28;20080;-76
2021/04/19 04:38:06;;;;;;;3.83;2.17;;;26.60;39.40;;;;;;5004209;28;20522;-76
2021/04/19 04:40:34;;;;;;;3.42;2.15;;;26.70;38.90;;;;;;5003089;28;20141;-75
2021/04/19 04:43:21;;;;;;;7.22;2.88;;;26.70;39.30;;;;;;5005025;28;20092;-74
2021/04/19 04:45:53;;;;;;;5.22;3.03;;;26.90;40.10;;;;;;5003191;28;20042;-74
2021/04/19 04:48:31;;;;;;;2.97;2.03;;;26.70;40.40;;;;;;5001510;28;20030;-72
2021/04/19 04:51:08;;;;;;;5.50;2.63;;;26.80;40.10;;;;;;5004494;28;20380;-74
2021/04/19 04:53:39;;;;;;;4.45;3.05;;;26.60;40.20;;;;;;5004535;28;20144;-74
2021/04/19 04:56:08;;;;;;;5.18;2.63;;;26.60;40.00;;;;;;5005868;28;20105;-75
2021/04/19 04:58:42;;;;;;;6.22;2.63;;;26.50;40.40;;;;;;5004298;28;20021;-75
2021/04/19 05:01:11;;;;;;;4.43;2.35;;;26.40;41.50;;;;;;5006843;28;20018;-74
2021/04/19 05:03:40;;;;;;;5.22;2.33;;;26.40;41.30;;;;;;5006153;28;20030;-75
2021/04/19 05:06:09;;;;;;;5.40;2.38;;;26.20;40.80;;;;;;5005506;28;20519;-72
2021/04/19 05:08:41;;;;;;;4.28;2.15;;;25.90;42.00;;;;;;5004193;28;20116;-75
2021/04/19 05:11:09;;;;;;;7.70;2.53;;;25.80;41.50;;;;;;5004521;28;20079;-77
2021/04/19 05:13:43;;;;;;;5.65;2.63;;;25.50;40.70;;;;;;5003628;28;20046;-76
2021/04/19 05:16:10;;;;;;;6.03;2.67;;;25.40;42.50;;;;;;5008493;28;20022;-77
2021/04/19 05:18:38;;;;;;;5.75;2.40;;;25.70;42.90;;;;;;5006008;28;20105;-74
2021/04/19 05:21:05;;;;;;;7.28;2.15;;;25.70;42.00;;;;;;5004895;28;20018;-76
2021/04/19 05:23:33;;;;;;;4.30;2.97;;;25.90;42.30;;;;;;5005082;28;20077;-72
2021/04/19 05:26:02;;;;;;;8.75;2.45;;;25.90;42.50;;;;;;5006069;28;20042;-73
2021/04/19 05:28:30;;;;;;;4.63;2.20;;;25.50;41.80;;;;;;5003407;28;20228;-78
2021/04/19 05:30:58;;;;;;;5.85;2.72;;;25.40;43.40;;;;;;5004951;28;20022;-81
2021/04/19 05:33:25;;;;;;;5.07;2.20;;;25.50;43.70;;;;;;5004820;28;20034;-69
2021/04/19 05:35:53;;;;;;;4.50;1.98;;;25.50;42.50;;;;;;5004447;28;20034;-73
2021/04/19 05:38:23;;;;;;;4.55;1.98;;;25.30;42.20;;;;;;5003413;28;22295;-70
2021/04/19 05:40:52;;;;;;;5.78;2.05;;;25.30;42.40;;;;;;5005441;28;20445;-79
2021/04/19 05:43:19;;;;;;;3.40;2.10;;;25.50;43.60;;;;;;5004612;28;20349;-76
2021/04/19 05:45:51;;;;;;;5.93;2.13;;;25.50;42.30;;;;;;4999723;28;20042;-77
2021/04/19 05:48:18;;;;;;;3.15;2.20;;;25.40;41.90;;;;;;5002722;28;20030;-78
2021/04/19 05:50:50;;;;;;;2.95;1.83;;;25.20;42.40;;;;;;5006289;28;20022;-76
2021/04/19 05:53:17;;;;;;;5.53;2.17;;;25.20;43.10;;;;;;5003622;28;20062;-77
2021/04/19 05:55:46;;;;;;;4.97;2.50;;;25.40;43.60;;;;;;5002437;28;20477;-71
2021/04/19 05:58:35;;;;;;;2.92;1.83;;;25.50;42.90;;;;;;5003011;28;20437;-76
2021/04/19 06:01:08;;;;;;;5.30;2.35;;;25.60;42.60;;;;;;5003026;28;20045;-75
2021/04/19 06:03:43;;;;;;;6.82;2.97;;;25.60;42.10;;;;;;5001464;28;20025;-72
2021/04/19 06:06:16;;;;;;;8.02;2.40;;;25.60;41.40;;;;;;5003204;28;20038;-74
2021/04/19 06:08:50;;;;;;;3.83;2.05;;;25.50;41.20;;;;;;5000740;28;20030;-74
2021/04/19 06:11:26;;;;;;;4.97;2.05;;;25.30;41.30;;;;;;5001073;28;20029;-75
2021/04/19 06:13:55;;;;;;;4.40;2.35;;;25.00;41.70;;;;;;5001472;28;20053;-70
2021/04/19 06:16:23;;;;;;;6.47;2.08;;;24.90;43.30;;;;;;5004331;28;20500;-69
2021/04/19 06:18:52;;;;;;;3.25;2.35;;;25.10;42.20;;;;;;5006354;28;20050;-69
2021/04/19 06:21:20;;;;;;;3.25;1.95;;;25.10;41.90;;;;;;5007199;28;20033;-71
2021/04/19 06:23:48;;;;;;;3.05;2.00;;;25.00;41.20;;;;;;5002630;28;20026;-73
2021/04/19 06:26:15;;;;;;;4.25;1.88;;;25.00;41.50;;;;;;5004495;28;20042;-73
2021/04/19 06:28:48;;;;;;;2.28;1.77;;;24.90;41.10;;;;;;5004762;28;20029;-75
2021/04/19 06:31:18;;;;;;;3.97;2.30;;;24.90;43.00;;;;;;4999819;28;20388;-71
2021/04/19 06:34:02;;;;;;;5.00;1.77;;;24.90;43.00;;;;;;5005318;28;20045;-71
2021/04/19 06:36:32;;;;;;;5.03;2.15;;;24.80;42.30;;;;;;5002420;28;20054;-71
2021/04/19 06:39:00;;;;;;;4.22;1.55;;;24.60;41.70;;;;;;5003853;28;20092;-74
2021/04/19 06:41:31;;;;;;;3.30;1.55;;;24.40;43.70;;;;;;5004064;28;20061;-74
2021/04/19 06:44:00;;;;;;;6.07;2.10;;;24.30;44.90;;;;;;5002119;28;20030;-76
2021/04/19 06:46:35;;;;;;;3.65;1.77;;;24.30;45.10;;;;;;5002491;28;20457;-70
2021/04/19 06:49:05;;;;;;;5.10;2.67;;;24.10;43.30;;;;;;5002230;28;20038;-73
2021/04/19 06:51:34;;;;;;;3.67;2.00;;;24.10;45.30;;;;;;5003587;28;20038;-72
2021/04/19 06:54:03;;;;;;;6.70;2.45;;;24.00;43.10;;;;;;5003104;28;20044;-73
2021/04/19 06:56:43;;;;;;;4.00;1.85;;;23.90;43.20;;;;;;5002157;28;20040;-70
2021/04/19 06:59:14;;;;;;;4.63;2.47;;;23.80;45.10;;;;;;5002817;28;20071;-75
2021/04/19 07:01:43;;;;;;;4.22;1.77;;;23.70;44.90;;;;;;5001058;28;20021;-70
2021/04/19 07:04:18;;;;;;;4.22;1.75;;;23.60;45.20;;;;;;4999925;28;20048;-69
2021/04/19 07:06:47;;;;;;;4.60;2.15;;;23.40;46.40;;;;;;5004044;28;20107;-75
2021/04/19 07:09:36;;;;;;;4.70;2.13;;;23.20;45.90;;;;;;5000033;28;20022;-75
2021/04/19 07:12:18;;;;;;;2.97;1.80;;;23.00;48.40;;;;;;5004219;28;20058;-76
2021/04/19 07:14:54;;;;;;;4.13;2.03;;;22.70;45.80;;;;;;5005322;28;20045;-73
2021/04/19 07:17:22;;;;;;;9.35;2.47;;;22.60;48.50;;;;;;5003688;28;20476;-75
2021/04/19 07:19:50;;;;;;;3.15;2.22;;;22.50;50.00;;;;;;5005077;28;20034;-72
2021/04/19 07:22:19;;;;;;;7.25;5.25;;;22.30;48.50;;;;;;5003358;28;20424;-73
2021/04/19 07:24:48;;;;;;;6.32;4.45;;;22.10;49.00;;;;;;5003458;28;20441;-75
2021/04/19 07:27:15;;;;;;;6.72;4.22;;;22.00;48.80;;;;;;5005401;28;20057;-75
2021/04/19 07:29:43;;;;;;;7.88;3.80;;;21.90;49.00;;;;;;5005596;28;20484;-75
2021/04/19 07:32:11;;;;;;;6.70;5.25;;;21.80;51.40;;;;;;5005139;28;20056;-73
2021/04/19 07:34:41;;;;;;;5.00;3.47;;;21.80;53.30;;;;;;5003147;28;20029;-76
2021/04/19 07:37:13;;;;;;;4.90;3.10;;;21.70;54.90;;;;;;5001885;28;20034;-76
2021/04/19 07:39:41;;;;;;;4.93;3.63;;;21.60;55.70;;;;;;5003682;28;20040;-75
2021/04/19 07:42:11;;;;;;;4.20;3.50;;;21.50;55.60;;;;;;5007897;28;20618;-72
2021/04/19 07:44:43;;;;;;;5.95;2.80;;;21.40;56.50;;;;;;5008725;28;20497;-75
2021/04/19 07:47:27;;;;;;;5.13;2.83;;;21.30;56.30;;;;;;5006491;28;20439;-71
2021/04/19 07:50:03;;;;;;;4.35;2.88;;;21.10;57.60;;;;;;5007613;28;20499;-71
2021/04/19 07:52:32;;;;;;;6.40;2.55;;;21.10;58.10;;;;;;5005276;28;20109;-75
2021/04/19 07:55:10;;;;;;;3.13;2.47;;;21.00;59.30;;;;;;5008602;28;20562;-77
2021/04/19 07:57:39;;;;;;;5.53;2.63;;;20.90;58.50;;;;;;5007412;28;20506;-75
2021/04/19 08:00:10;;;;;;;5.85;3.05;;;20.90;59.70;;;;;;5010163;28;20026;-74
2021/04/19 08:02:38;;;;;;;4.03;2.97;;;20.80;60.20;;;;;;5005365;28;20026;-71
2021/04/19 08:05:06;;;;;;;6.22;3.15;;;20.70;60.40;;;;;;5003826;28;20033;-75
2021/04/19 08:07:33;;;;;;;4.85;3.03;;;20.60;60.80;;;;;;5008138;28;20022;-74
2021/04/19 08:10:10;;;;;;;7.03;2.53;;;20.50;61.20;;;;;;5005628;28;20099;-80
2021/04/19 08:12:42;;;;;;;5.18;2.83;;;20.30;62.90;;;;;;5003903;28;20042;-81
2021/04/19 08:15:12;;;;;;;9.63;3.78;;;20.20;62.00;;;;;;5009439;28;20042;-79
2021/04/19 08:17:40;;;;;;;10.35;3.47;;;20.00;62.10;;;;;;5006762;28;20037;-82
2021/04/19 08:20:14;;;;;;;10.30;4.88;;;19.80;63.40;;;;;;5006196;28;20034;-76
2021/04/19 08:22:45;;;;;;;11.32;4.38;;;19.80;63.80;;;;;;5006162;28;20164;-82
2021/04/19 08:25:17;;;;;;;12.68;3.95;;;19.60;64.00;;;;;;5004955;28;20122;-81
2021/04/19 08:27:48;;;;;;;7.43;4.63;;;19.60;63.30;;;;;;5010586;28;20125;-79
2021/04/19 08:30:17;;;;;;;19.27;4.57;;;19.40;64.30;;;;;;5003105;28;20382;-80
2021/04/19 08:32:47;;;;;;;9.13;3.67;;;19.40;65.00;;;;;;5009582;28;20113;-80
2021/04/19 08:35:15;;;;;;;10.15;3.42;;;19.30;65.70;;;;;;5006822;28;20021;-80
2021/04/19 08:37:44;;;;;;;6.80;3.97;;;19.20;64.00;;;;;;5009272;28;20026;-79
2021/04/19 08:40:16;;;;;;;8.30;3.85;;;19.10;63.40;;;;;;5009621;28;20167;-80
2021/04/19 08:42:43;;;;;;;11.25;3.50;;;19.10;64.10;;;;;;5008015;28;20029;-80
2021/04/19 08:45:12;;;;;;;10.35;3.80;;;19.00;65.20;;;;;;5012234;28;20056;-80
2021/04/19 08:47:40;;;;;;;9.98;4.57;;;19.00;65.50;;;;;;5011285;28;20029;-79
2021/04/19 08:50:09;;;;;;;11.40;4.50;;;18.90;65.40;;;;;;5008180;28;20025;-79
2021/04/19 08:52:37;;;;;;;6.45;3.40;;;18.90;66.00;;;;;;5010300;28;20052;-80
2021/04/19 08:55:08;;;;;;;9.27;4.22;;;18.80;67.20;;;;;;5009741;28;20547;-80
2021/04/19 08:57:35;;;;;;;5.63;3.35;;;18.70;67.60;;;;;;5008782;28;20093;-81
2021/04/19 09:00:04;;;;;;;10.65;3.97;;;18.70;68.30;;;;;;5007516;28;20036;-80
2021/04/19 09:02:32;;;;;;;9.68;3.63;;;18.60;68.80;;;;;;5005969;28;20133;-79
2021/04/19 09:05:12;;;;;;;8.20;3.72;;;18.60;69.30;;;;;;5006255;28;20046;-77
2021/04/19 09:07:46;;;;;;;7.40;4.15;;;18.50;70.20;;;;;;5009912;28;20472;-81
2021/04/19 09:10:20;;;;;;;8.88;3.88;;;18.40;71.20;;;;;;5011093;28;20050;-84
2021/04/19 09:12:48;;;;;;;8.67;3.97;;;18.40;72.10;;;;;;5013284;28;20022;-79
2021/04/19 09:15:19;;;;;;;6.03;3.92;;;18.40;72.90;;;;;;5015111;28;20109;-78
2021/04/19 09:18:09;;;;;;;4.80;3.40;;;18.40;74.00;;;;;;5010740;28;20461;-82
2021/04/19 09:20:50;;;;;;;7.03;4.00;;;18.30;75.00;;;;;;5033209;28;20508;-78
2021/04/19 09:23:26;;;;;;;9.60;4.40;;;18.20;75.90;;;;;;5013378;28;20093;-79
2021/04/19 09:25:56;;;;;;;9.10;4.57;;;18.10;76.40;;;;;;5013387;28;20036;-80
2021/04/19 09:28:42;;;;;;;6.60;3.97;;;18.10;77.70;;;;;;5010894;28;20252;-78
2021/04/19 09:31:10;;;;;;;6.97;3.60;;;18.00;77.90;;;;;;5006238;28;20022;-82
2021/04/19 09:33:39;;;;;;;14.82;4.80;;;18.00;78.80;;;;;;5012930;28;20279;-76
2021/04/19 09:36:06;;;;;;;6.20;3.58;;;17.90;79.40;;;;;;5020821;28;20032;-78
2021/04/19 09:38:51;;;;;;;8.77;4.03;;;17.90;79.90;;;;;;5017533;28;20067;-78
2021/04/19 09:41:20;;;;;;;4.22;3.08;;;17.90;80.40;;;;;;5021821;28;20439;-78
2021/04/19 09:43:54;;;;;;;7.72;3.55;;;17.80;80.70;;;;;;5013903;28;20096;-79
2021/04/19 09:46:21;;;;;;;6.45;3.92;;;17.80;81.40;;;;;;5013335;28;20117;-76
2021/04/19 09:48:56;;;;;;;7.43;3.92;;;17.80;82.40;;;;;;5010695;28;20050;-76
2021/04/19 09:51:43;;;;;;;7.50;4.28;;;17.70;81.20;;;;;;5011738;28;20026;-76
2021/04/19 09:54:15;;;;;;;9.10;4.22;;;17.60;80.40;;;;;;5012001;28;20029;-75
2021/04/19 09:56:57;;;;;;;12.25;4.28;;;17.60;79.90;;;;;;5014312;28;20022;-75
2021/04/19 09:59:29;;;;;;;6.05;3.72;;;17.60;79.80;;;;;;5014528;28;20029;-76
2021/04/19 10:02:02;;;;;;;10.38;4.68;;;17.50;79.90;;;;;;5011688;28;20046;-82
2021/04/19 10:04:35;;;;;;;9.18;4.13;;;17.50;80.20;;;;;;5010455;28;20393;-81
2021/04/19 10:07:03;;;;;;;12.35;4.22;;;17.50;80.40;;;;;;5007656;28;21274;-80
2021/04/19 10:09:32;;;;;;;11.60;4.10;;;17.50;80.50;;;;;;5007873;28;20018;-79
2021/04/19 10:12:10;;;;;;;11.50;4.93;;;17.50;80.90;;;;;;5013907;28;20036;-80
2021/04/19 10:14:40;;;;;;;11.60;4.47;;;17.40;80.80;;;;;;5012562;28;20092;-77
2021/04/19 10:17:17;;;;;;;16.35;5.40;;;17.20;81.30;;;;;;5022975;28;20022;-80
2021/04/19 10:19:50;;;;;;;6.57;4.05;;;17.20;81.90;;;;;;5020861;28;20034;-81
2021/04/19 10:22:29;;;;;;;12.25;5.22;;;17.10;82.30;;;;;;4998280;28;20041;-80
2021/04/19 10:25:01;;;;;;;11.10;4.63;;;17.10;82.30;;;;;;5019642;28;20436;-77
2021/04/19 10:27:32;;;;;;;8.52;4.43;;;17.10;82.10;;;;;;5014064;28;20430;-83
2021/04/19 10:30:24;;;;;;;11.43;4.78;;;17.00;82.30;;;;;;5014474;28;20025;-76
2021/04/19 10:32:51;;;;;;;13.25;5.38;;;16.90;82.60;;;;;;5017216;28;20405;-83
2021/04/19 10:35:41;;;;;;;12.77;5.07;;;16.90;83.30;;;;;;5020791;28;20404;-78
2021/04/19 10:38:09;;;;;;;8.57;4.45;;;16.80;83.80;;;;;;5017414;28;20029;-80
2021/04/19 10:40:40;;;;;;;11.63;5.15;;;16.70;84.20;;;;;;5014597;28;20452;-76
2021/04/19 10:43:15;;;;;;;10.48;5.18;;;16.70;84.40;;;;;;5013519;28;20088;-75
2021/04/19 10:45:49;;;;;;;7.28;5.38;;;16.50;84.80;;;;;;5018953;28;20041;-79
2021/04/19 10:48:32;;;;;;;9.23;4.15;;;16.50;85.20;;;;;;5018424;28;20094;-79
2021/04/19 10:51:20;;;;;;;9.48;4.63;;;16.60;85.70;;;;;;5013847;28;20052;-80
2021/04/19 10:53:53;;;;;;;12.35;5.22;;;16.40;86.30;;;;;;5017160;28;20061;-77
2021/04/19 10:56:26;;;;;;;15.88;5.30;;;16.40;86.20;;;;;;5018602;28;20152;-78
2021/04/19 10:59:00;;;;;;;21.02;6.13;;;16.30;85.80;;;;;;5019067;28;20484;-77
2021/04/19 11:01:35;;;;;;;13.65;6.03;;;16.30;86.00;;;;;;5017310;28;20030;-75
2021/04/19 11:04:06;;;;;;;18.02;6.53;;;16.20;86.30;;;;;;5021856;28;20033;-76
2021/04/19 11:06:35;;;;;;;23.40;7.28;;;16.00;86.60;;;;;;5017412;28;20081;-78
2021/04/19 11:09:07;;;;;;;21.23;7.03;;;16.00;87.20;;;;;;5016162;28;20030;-78
2021/04/19 11:11:41;;;;;;;17.20;6.85;;;15.90;87.70;;;;;;5010609;28;20172;-77
2021/04/19 11:14:19;;;;;;;19.50;6.93;;;15.80;87.90;;;;;;5006617;28;20030;-81
2021/04/19 11:17:09;;;;;;;22.38;7.05;;;15.70;88.30;;;;;;5015264;28;20779;-81
2021/04/19 11:19:47;;;;;;;21.85;7.07;;;15.80;88.80;;;;;;5019923;28;20030;-79
2021/04/19 11:22:53;;;;;;;14.20;6.55;;;15.70;89.00;;;;;;5021220;28;20026;-82
2021/04/19 11:25:24;;;;;;;16.85;7.72;;;15.70;89.40;;;;;;5001345;28;20092;-79
2021/04/19 11:28:11;;;;;;;13.75;6.65;;;15.70;89.90;;;;;;4998455;28;20554;-80
2021/04/19 11:30:39;;;;;;;15.52;7.30;;;15.70;90.10;;;;;;4995840;28;20595;-80
2021/04/19 11:33:10;;;;;;;12.23;7.20;;;15.70;90.50;;;;;;4999725;28;20078;-79
2021/04/19 11:35:46;;;;;;;17.00;7.90;;;15.70;90.80;;;;;;5002545;28;20057;-80
2021/04/19 11:38:22;;;;;;;11.85;7.47;;;15.80;90.60;;;;;;5013830;28;20025;-80
2021/04/19 11:41:11;;;;;;;;;;;15.90;90.50;;;;;;5013456;28;20117;-79
2021/04/19 11:43:48;;;;;;;14.82;8.13;;;15.80;90.70;;;;;;5009715;28;20334;-80
2021/04/19 11:46:18;;;;;;;10.38;7.10;;;15.80;90.40;;;;;;5015804;28;20062;-83
2021/04/19 11:48:48;;;;;;;13.93;6.93;;;15.80;90.40;;;;;;5029231;28;20038;-81
2021/04/19 11:51:17;;;;;;;18.48;8.68;;;15.80;90.40;;;;;;5008296;28;20038;-79
2021/04/19 11:53:47;;;;;;;13.13;7.85;;;15.70;90.50;;;;;;5009295;28;20049;-79
2021/04/19 11:56:16;;;;;;;19.70;7.68;;;15.60;90.80;;;;;;5007918;28;20080;-78
2021/04/19 11:58:46;;;;;;;14.45;7.15;;;15.50;91.30;;;;;;5010277;28;20546;-78
2021/04/19 12:01:15;;;;;;;12.88;8.18;;;15.50;91.30;;;;;;5010343;28;20076;-79
2021/04/19 12:03:43;;;;;;;15.93;8.60;;;15.30;91.50;;;;;;5011414;28;20021;-79
2021/04/19 12:06:11;;;;;;;11.63;7.97;;;15.30;91.40;;;;;;5009466;28;20042;-79
2021/04/19 12:08:42;;;;;;;14.88;8.63;;;15.30;91.40;;;;;;5010289;28;20118;-79
2021/04/19 12:11:17;;;;;;;18.23;8.18;;;15.10;91.30;;;;;;5011670;28;20070;-78
2021/04/19 12:13:45;;;;;;;15.93;8.63;;;15.00;91.20;;;;;;5009526;28;20025;-77
2021/04/19 12:16:13;;;;;;;13.88;9.10;;;14.90;91.20;;;;;;5010969;28;20088;-79
2021/04/19 12:18:40;;;;;;;35.63;11.38;;;14.80;91.30;;;;;;5012052;28;20081;-78
2021/04/19 12:21:08;;;;;;;30.13;11.15;;;14.70;91.50;;;;;;5010951;28;20485;-80
2021/04/19 12:23:36;;;;;;;22.90;10.25;;;14.60;91.60;;;;;;5010320;28;20037;-79
2021/04/19 12:26:04;;;;;;;25.23;9.55;;;14.60;91.70;;;;;;5014604;28;20401;-78
2021/04/19 12:28:32;;;;;;;17.98;9.20;;;14.60;91.90;;;;;;5013121;28;20018;-79
2021/04/19 12:31:00;;;;;;;33.08;11.45;;;14.50;91.90;;;;;;5035099;28;20026;-82
2021/04/19 12:33:29;;;;;;;22.30;8.93;;;14.50;91.80;;;;;;5011127;28;20034;-81
2021/04/19 12:35:57;;;;;;;21.80;10.55;;;14.50;91.70;;;;;;5012564;28;20060;-81
2021/04/19 12:38:25;;;;;;;17.48;8.13;;;14.50;91.70;;;;;;5008900;28;20034;-82
2021/04/19 12:40:53;;;;;;;16.27;9.40;;;14.50;91.70;;;;;;5012508;28;20022;-80
2021/04/19 12:43:20;;;;;;;14.75;8.27;;;14.50;91.60;;;;;;5031621;28;20370;-81
2021/04/19 12:45:48;;;;;;;16.63;8.43;;;14.50;91.50;;;;;;5013462;28;20053;-81
2021/04/19 12:48:15;;;;;;;11.07;7.35;;;14.50;91.30;;;;;;5008723;28;20076;-80
2021/04/19 12:50:42;;;;;;;13.60;8.10;;;14.60;91.30;;;;;;5013497;28;20033;-83
2021/04/19 12:53:10;;;;;;;14.60;6.63;;;14.60;91.10;;;;;;5009309;28;20111;-81
2021/04/19 12:55:42;;;;;;;14.85;7.22;;;14.60;91.10;;;;;;5009160;28;20036;-81
2021/04/19 12:58:14;;;;;;;8.95;6.35;;;14.60;91.00;;;;;;5008311;28;20314;-81
2021/04/19 13:00:42;;;;;;;9.43;6.53;;;14.60;90.90;;;;;;5012702;28;20024;-82
2021/04/19 13:03:10;;;;;;;9.85;6.28;;;14.60;91.00;;;;;;5007438;28;20435;-82
2021/04/19 13:05:40;;;;;;;11.07;6.80;;;14.60;90.90;;;;;;5010539;28;20068;-82
2021/04/19 13:08:08;;;;;;;16.77;8.13;;;14.50;90.90;;;;;;5009790;28;20034;-80
2021/04/19 13:10:39;;;;;;;11.30;6.38;;;14.50;91.00;;;;;;5010953;28;20034;-82